createdAt,value
2022-12-12T00:01:45.655Z,13.33
2022-12-12T00:04:13.139Z,15.17
2022-12-12T00:06:40.603Z,14.77
2022-12-12T00:09:09.522Z,14.57
2022-12-12T00:11:37.105Z,14.20
2022-12-12T00:14:04.549Z,15.37
2022-12-12T00:16:32.442Z,13.83
2022-12-12T00:19:00.073Z,13.20
2022-12-12T00:21:28.555Z,14.17
2022-12-12T00:23:56.654Z,12.17
2022-12-12T00:26:24.354Z,12.77
2022-12-12T00:28:52.279Z,13.43
2022-12-12T00:31:20.227Z,13.23
2022-12-12T00:33:50.264Z,12.70
2022-12-12T00:36:26.605Z,12.83
2022-12-12T00:38:54.525Z,12.13
2022-12-12T00:41:22.084Z,13.17
2022-12-12T00:43:49.533Z,13.37
2022-12-12T00:46:18.145Z,13.57
2022-12-12T00:48:46.207Z,12.17
2022-12-12T00:51:18.040Z,12.63
2022-12-12T00:53:45.676Z,14.20
2022-12-12T00:56:13.387Z,13.20
2022-12-12T00:58:41.128Z,14.30
2022-12-12T01:01:10.009Z,15.13
2022-12-12T01:03:38.173Z,13.93
2022-12-12T01:06:07.322Z,12.67
2022-12-12T01:08:34.909Z,11.03
2022-12-12T01:11:02.341Z,13.10
2022-12-12T01:13:29.799Z,13.73
2022-12-12T01:15:57.350Z,13.53
2022-12-12T01:18:25.639Z,12.83
2022-12-12T01:20:53.374Z,12.77
2022-12-12T01:23:20.875Z,13.90
2022-12-12T01:25:48.343Z,13.70
2022-12-12T01:28:15.995Z,14.63
2022-12-12T01:30:43.459Z,14.43
2022-12-12T01:33:10.956Z,11.50
2022-12-12T01:35:38.481Z,13.43
2022-12-12T01:38:05.887Z,12.37
2022-12-12T01:40:33.374Z,11.53
2022-12-12T01:43:00.819Z,13.57
2022-12-12T01:45:47.042Z,13.43
2022-12-12T01:48:14.940Z,13.93
2022-12-12T01:50:42.973Z,16.40
2022-12-12T01:53:11.253Z,12.73
2022-12-12T01:55:38.782Z,13.63
2022-12-12T01:58:06.274Z,12.57
2022-12-12T02:00:33.923Z,13.40
2022-12-12T02:03:01.473Z,12.90
2022-12-12T02:05:29.018Z,13.07
2022-12-12T02:07:57.480Z,13.77
2022-12-12T02:10:24.974Z,14.83
2022-12-12T02:12:52.948Z,13.17
2022-12-12T02:15:20.385Z,15.10
2022-12-12T02:18:11.248Z,12.13
2022-12-12T02:20:46.092Z,14.93
2022-12-12T02:23:19.807Z,12.53
2022-12-12T02:26:05.437Z,15.40
2022-12-12T02:28:32.908Z,13.17
2022-12-12T02:31:35.762Z,12.90
2022-12-12T02:34:15.232Z,12.67
2022-12-12T02:36:51.566Z,13.17
2022-12-12T02:39:19.053Z,15.30
2022-12-12T02:41:56.599Z,13.47
2022-12-12T02:44:28.758Z,11.87
2022-12-12T02:47:09.985Z,13.30
2022-12-12T02:49:52.829Z,13.83
2022-12-12T02:52:20.683Z,12.70
2022-12-12T02:54:51.328Z,14.10
2022-12-12T02:57:20.558Z,14.80
2022-12-12T02:59:56.207Z,13.63
2022-12-12T03:02:50.663Z,14.63
2022-12-12T03:05:36.691Z,12.60
2022-12-12T03:08:04.167Z,13.20
2022-12-12T03:10:34.803Z,13.20
2022-12-12T03:13:20.889Z,13.33
2022-12-12T03:16:00.672Z,14.93
2022-12-12T03:18:49.192Z,14.00
2022-12-12T03:21:22.629Z,13.70
2022-12-12T03:23:52.032Z,13.93
2022-12-12T03:26:26.336Z,15.00
2022-12-12T03:28:57.063Z,13.30
2022-12-12T03:31:26.380Z,15.33
2022-12-12T03:34:05.363Z,14.23
2022-12-12T03:36:45.651Z,12.83
2022-12-12T03:39:19.634Z,13.30
2022-12-12T03:41:54.077Z,13.23
2022-12-12T03:44:23.476Z,12.30
2022-12-12T03:46:55.725Z,13.13
2022-12-12T03:49:29.048Z,11.80
2022-12-12T03:51:59.901Z,11.90
2022-12-12T03:54:30.112Z,14.40
2022-12-12T03:56:59.972Z,13.23
2022-12-12T03:59:30.104Z,13.93
2022-12-12T04:02:08.413Z,11.13
2022-12-12T04:04:39.984Z,14.40
2022-12-12T04:07:19.575Z,12.40
2022-12-12T04:10:07.458Z,13.30
2022-12-12T04:12:58.327Z,13.40
2022-12-12T04:15:31.864Z,13.90
2022-12-12T04:18:14.942Z,13.47
2022-12-12T04:24:39.739Z,12.00
2022-12-12T04:27:16.605Z,12.30
2022-12-12T04:29:47.125Z,12.53
2022-12-12T04:32:33.374Z,13.50
2022-12-12T04:35:04.232Z,12.13
2022-12-12T04:37:34.935Z,12.30
2022-12-12T04:40:03.791Z,12.63
2022-12-12T04:42:34.443Z,13.30
2022-12-12T04:45:11.596Z,14.40
2022-12-12T04:47:40.247Z,12.53
2022-12-12T04:50:09.608Z,13.53
2022-12-12T04:52:38.108Z,11.70
2022-12-12T04:55:18.672Z,12.03
2022-12-12T04:57:48.525Z,12.13
2022-12-12T05:00:16.865Z,12.20
2022-12-12T05:02:50.219Z,10.40
2022-12-12T05:05:19.986Z,12.00
2022-12-12T05:07:53.742Z,11.20
2022-12-12T05:10:21.291Z,14.23
2022-12-12T05:12:53.468Z,10.40
2022-12-12T05:15:21.239Z,11.20
2022-12-12T05:18:06.347Z,11.93
2022-12-12T05:20:33.923Z,12.83
2022-12-12T05:23:01.412Z,12.07
2022-12-12T05:25:35.348Z,11.63
2022-12-12T05:28:02.908Z,12.27
2022-12-12T05:30:30.554Z,10.67
2022-12-12T05:32:58.093Z,11.97
2022-12-12T05:35:25.618Z,11.97
2022-12-12T05:37:53.085Z,14.80
2022-12-12T05:40:21.247Z,10.60
2022-12-12T05:42:48.791Z,11.23
2022-12-12T05:45:16.463Z,12.90
2022-12-12T05:47:43.924Z,12.73
2022-12-12T05:50:11.524Z,12.40
2022-12-12T05:52:39.453Z,11.90
2022-12-12T05:55:07.281Z,13.07
2022-12-12T05:57:34.809Z,14.17
2022-12-12T06:00:02.393Z,14.33
2022-12-12T06:02:32.571Z,13.27
2022-12-12T06:05:00.123Z,17.80
2022-12-12T06:07:27.654Z,13.30
2022-12-12T06:09:56.014Z,12.37
2022-12-12T06:12:23.600Z,12.23
2022-12-12T06:14:51.051Z,11.83
2022-12-12T06:17:18.530Z,11.60
2022-12-12T06:19:45.988Z,13.07
2022-12-12T06:22:13.567Z,11.87
2022-12-12T06:24:41.484Z,11.60
2022-12-12T06:27:09.013Z,12.37
2022-12-12T06:29:36.445Z,12.07
2022-12-12T06:32:04.003Z,11.73
2022-12-12T06:34:31.477Z,13.23
2022-12-12T06:36:59.143Z,11.60
2022-12-12T06:39:27.204Z,11.00
2022-12-12T06:41:54.693Z,13.23
2022-12-12T06:44:22.328Z,11.27
2022-12-12T06:46:49.811Z,12.90
2022-12-12T06:49:17.317Z,13.27
2022-12-12T06:51:44.837Z,13.43
2022-12-12T06:54:13.216Z,13.00
2022-12-12T06:56:46.217Z,12.90
2022-12-12T06:59:15.681Z,14.10
2022-12-12T07:01:43.201Z,13.00
2022-12-12T07:04:11.831Z,12.10
2022-12-12T07:06:39.288Z,11.80
2022-12-12T07:09:07.180Z,11.03
2022-12-12T07:11:34.872Z,11.77
2022-12-12T07:14:05.631Z,12.20
2022-12-12T07:16:33.169Z,12.43
2022-12-12T07:19:00.750Z,11.30
2022-12-12T07:21:28.376Z,14.17
2022-12-12T07:23:57.138Z,11.60
2022-12-12T07:26:25.343Z,13.30
2022-12-12T07:28:53.216Z,13.40
2022-12-12T07:31:22.402Z,11.73
2022-12-12T07:33:50.045Z,13.07
2022-12-12T07:36:17.730Z,14.27
2022-12-12T07:38:45.299Z,13.80
2022-12-12T07:41:14.276Z,13.97
2022-12-12T07:43:44.075Z,13.33
2022-12-12T07:46:14.249Z,17.57
2022-12-12T07:48:41.785Z,12.57
2022-12-12T07:51:09.696Z,12.43
2022-12-12T07:53:37.401Z,12.27
2022-12-12T07:56:06.393Z,12.90
2022-12-12T07:58:34.333Z,13.33
2022-12-12T08:01:01.788Z,13.47
2022-12-12T08:03:29.560Z,13.23
2022-12-12T08:05:57.208Z,14.27
2022-12-12T08:08:24.708Z,14.37
2022-12-12T08:10:52.283Z,13.83
2022-12-12T08:13:19.792Z,13.63
2022-12-12T08:15:47.458Z,15.03
2022-12-12T08:18:14.919Z,16.97
2022-12-12T08:20:42.594Z,19.33
2022-12-12T08:23:10.553Z,23.60
2022-12-12T08:25:38.132Z,20.73
2022-12-12T08:28:05.773Z,16.93
2022-12-12T08:30:33.310Z,19.73
2022-12-12T08:33:06.468Z,16.40
2022-12-12T08:35:35.493Z,14.57
2022-12-12T08:38:03.921Z,16.03
2022-12-12T08:40:31.401Z,14.17
2022-12-12T08:42:58.824Z,15.57
2022-12-12T08:45:26.250Z,15.37
2022-12-12T08:47:53.707Z,15.07
2022-12-12T08:50:21.813Z,14.03
2022-12-12T08:52:49.337Z,12.70
2022-12-12T08:55:16.770Z,14.07
2022-12-12T08:57:44.231Z,14.90
2022-12-12T09:00:12.011Z,15.50
2022-12-12T09:02:39.541Z,15.13
2022-12-12T09:05:08.073Z,13.83
2022-12-12T09:07:36.467Z,13.23
2022-12-12T09:10:04.871Z,13.93
2022-12-12T09:12:35.695Z,13.20
2022-12-12T09:15:08.014Z,12.67
2022-12-12T09:17:35.586Z,14.47
2022-12-12T09:20:03.628Z,13.33
2022-12-12T09:22:31.457Z,13.07
2022-12-12T09:24:58.909Z,13.23
2022-12-12T09:27:26.402Z,12.33
2022-12-12T09:29:53.903Z,12.23
2022-12-12T09:32:24.602Z,11.50
2022-12-12T09:34:52.957Z,13.90
2022-12-12T09:37:20.575Z,11.30
2022-12-12T09:39:48.169Z,11.23
2022-12-12T09:42:27.103Z,12.37
2022-12-12T09:44:56.514Z,11.17
2022-12-12T09:47:42.730Z,13.30
2022-12-12T09:50:28.152Z,11.37
2022-12-12T09:52:57.883Z,10.60
2022-12-12T09:55:28.156Z,13.83
2022-12-12T09:58:03.768Z,12.23
2022-12-12T10:00:32.935Z,11.93
2022-12-12T10:03:03.381Z,11.47
2022-12-12T10:05:33.904Z,12.00
2022-12-12T10:08:01.412Z,10.73
2022-12-12T10:10:28.940Z,10.00
2022-12-12T10:12:58.380Z,12.07
2022-12-12T10:15:38.097Z,10.10
2022-12-12T10:18:12.464Z,10.40
2022-12-12T10:21:00.476Z,9.97
2022-12-12T10:23:48.815Z,9.53
2022-12-12T10:26:17.308Z,9.87
2022-12-12T10:28:45.116Z,10.20
2022-12-12T10:31:31.336Z,8.40
2022-12-12T10:34:15.862Z,10.33
2022-12-12T10:36:46.147Z,9.57
2022-12-12T10:39:18.760Z,8.67
2022-12-12T10:41:52.526Z,12.73
2022-12-12T10:44:28.008Z,9.53
2022-12-12T10:47:00.478Z,8.40
2022-12-12T10:49:28.065Z,8.53
2022-12-12T10:51:56.695Z,9.87
2022-12-12T10:54:27.161Z,9.87
2022-12-12T10:57:26.624Z,8.87
2022-12-12T10:59:58.125Z,10.47
2022-12-12T11:02:28.770Z,5.93
2022-12-12T11:05:07.283Z,8.87
2022-12-12T11:07:42.651Z,8.77
2022-12-12T11:10:23.057Z,8.57
2022-12-12T11:12:59.864Z,9.80
2022-12-12T11:15:32.616Z,8.93
2022-12-12T11:18:05.763Z,8.47
2022-12-12T11:20:33.827Z,8.70
2022-12-12T11:23:01.310Z,9.27
2022-12-12T11:25:32.937Z,8.93
2022-12-12T11:28:06.674Z,8.80
2022-12-12T11:30:35.013Z,10.07
2022-12-12T11:33:03.994Z,9.60
2022-12-12T11:35:47.534Z,9.80
2022-12-12T11:38:29.780Z,9.87
2022-12-12T11:41:05.616Z,11.30
2022-12-12T11:43:36.857Z,9.23
2022-12-12T11:46:08.401Z,9.00
2022-12-12T11:48:48.178Z,9.73
2022-12-12T11:51:30.712Z,9.90
2022-12-12T11:53:58.954Z,9.30
2022-12-12T11:56:41.689Z,18.17
2022-12-12T11:59:11.985Z,13.30
2022-12-12T12:01:49.128Z,10.47
2022-12-12T12:04:39.936Z,36.03
2022-12-12T12:07:30.510Z,21.03
2022-12-12T12:10:02.343Z,10.27
2022-12-12T12:12:56.249Z,9.60
2022-12-12T12:15:29.865Z,8.23
2022-12-12T12:18:15.796Z,8.60
2022-12-12T12:20:43.204Z,7.40
2022-12-12T12:23:22.928Z,6.80
2022-12-12T12:25:58.227Z,7.53
2022-12-12T12:28:31.648Z,8.00
2022-12-12T12:31:02.296Z,7.73
2022-12-12T12:33:45.466Z,7.73
2022-12-12T12:36:21.081Z,7.87
2022-12-12T12:38:58.323Z,8.77
2022-12-12T12:41:29.895Z,8.07
2022-12-12T12:43:57.425Z,8.73
2022-12-12T12:46:35.033Z,7.77
2022-12-12T12:49:14.780Z,7.37
2022-12-12T12:51:53.386Z,8.20
2022-12-12T12:54:41.088Z,8.67
2022-12-12T12:57:14.596Z,8.37
2022-12-12T12:59:44.877Z,10.23
2022-12-12T13:02:25.292Z,9.83
2022-12-12T13:05:01.245Z,9.40
2022-12-12T13:07:28.707Z,8.83
2022-12-12T13:10:02.048Z,8.50
2022-12-12T13:12:35.790Z,10.13
2022-12-12T13:15:05.731Z,8.63
2022-12-12T13:17:36.332Z,7.63
2022-12-12T13:20:04.104Z,8.17
2022-12-12T13:22:47.986Z,10.40
2022-12-12T13:25:19.388Z,8.27
2022-12-12T13:27:50.561Z,10.17
2022-12-12T13:30:21.531Z,9.50
2022-12-12T13:32:51.759Z,9.33
2022-12-12T13:35:26.258Z,8.83
2022-12-12T13:37:54.710Z,11.03
2022-12-12T13:40:42.509Z,9.17
2022-12-12T13:43:36.364Z,7.87
2022-12-12T13:46:20.183Z,11.00
2022-12-12T13:49:07.959Z,9.20
2022-12-12T13:51:38.824Z,8.80
2022-12-12T13:54:13.557Z,9.83
2022-12-12T13:56:43.693Z,10.03
2022-12-12T13:59:37.507Z,8.63
2022-12-12T14:02:25.581Z,9.57
2022-12-12T14:05:12.943Z,9.40
2022-12-12T14:07:48.747Z,8.67
2022-12-12T14:10:36.549Z,9.73
2022-12-12T14:13:18.036Z,7.80
2022-12-12T14:15:46.270Z,8.83
2022-12-12T14:18:29.752Z,8.87
2022-12-12T14:21:00.516Z,8.20
2022-12-12T14:23:30.065Z,9.43
2022-12-12T14:25:59.925Z,8.37
2022-12-12T14:28:29.560Z,9.07
2022-12-12T14:31:04.147Z,8.33
2022-12-12T14:33:34.804Z,8.37
2022-12-12T14:36:22.909Z,8.37
2022-12-12T14:38:59.447Z,9.43
2022-12-12T14:41:32.352Z,8.87
2022-12-12T14:44:36.206Z,7.57
2022-12-12T14:46:49.483Z,9.43
2022-12-12T14:49:17.890Z,6.63
2022-12-12T14:51:47.576Z,7.80
2022-12-12T14:54:19.348Z,7.50
2022-12-12T14:56:52.679Z,8.60
2022-12-12T14:59:20.758Z,7.50
2022-12-12T15:01:58.159Z,7.23
2022-12-12T15:04:30.000Z,8.00
2022-12-12T15:06:58.473Z,8.47
2022-12-12T15:09:39.340Z,7.63
2022-12-12T15:12:16.407Z,6.80
2022-12-12T15:14:49.996Z,19.07
2022-12-12T15:17:19.345Z,12.80
2022-12-12T15:19:55.896Z,8.90
2022-12-12T15:22:26.430Z,7.67
2022-12-12T15:24:54.831Z,11.33
2022-12-12T15:27:30.695Z,8.90
2022-12-12T15:30:01.744Z,8.90
2022-12-12T15:32:29.843Z,8.43
2022-12-12T15:35:05.715Z,8.17
2022-12-12T15:37:35.062Z,9.33
2022-12-12T15:40:11.417Z,8.23
2022-12-12T15:42:40.022Z,10.43
2022-12-12T15:45:09.213Z,7.83
2022-12-12T15:47:36.918Z,8.30
2022-12-12T15:50:13.348Z,7.83
2022-12-12T15:52:41.275Z,8.37
2022-12-12T15:55:18.348Z,8.53
2022-12-12T15:57:47.882Z,7.93
2022-12-12T16:00:29.323Z,8.80
2022-12-12T16:03:01.285Z,9.10
2022-12-12T16:05:40.942Z,9.83
2022-12-12T16:08:32.095Z,8.40
2022-12-12T16:11:05.536Z,8.77
2022-12-12T16:13:40.177Z,8.30
2022-12-12T16:16:26.060Z,8.83
2022-12-12T16:18:54.138Z,8.93
2022-12-12T16:21:21.594Z,7.53
2022-12-12T16:23:49.057Z,8.13
2022-12-12T16:26:16.593Z,8.70
2022-12-12T16:28:44.052Z,7.63
2022-12-12T16:31:16.865Z,7.97
2022-12-12T16:33:44.430Z,9.63
2022-12-12T16:36:13.916Z,8.43
2022-12-12T16:38:42.255Z,8.17
2022-12-12T16:41:13.430Z,7.67
2022-12-12T16:43:42.194Z,8.50
2022-12-12T16:46:17.305Z,8.87
2022-12-12T16:48:45.092Z,10.07
2022-12-12T16:51:16.034Z,7.93
2022-12-12T16:53:43.648Z,8.87
2022-12-12T16:56:11.675Z,8.33
2022-12-12T16:58:39.316Z,11.40
2022-12-12T17:01:07.214Z,9.70
2022-12-12T17:03:37.082Z,8.97
2022-12-12T17:06:04.636Z,9.60
2022-12-12T17:08:32.182Z,9.97
2022-12-12T17:11:10.534Z,11.03
2022-12-12T17:13:40.123Z,9.60
2022-12-12T17:16:07.685Z,8.67
2022-12-12T17:18:35.229Z,9.17
2022-12-12T17:21:02.659Z,9.03
2022-12-12T17:23:30.295Z,9.43
2022-12-12T17:26:03.432Z,7.93
2022-12-12T17:28:32.312Z,10.03
2022-12-12T17:30:59.785Z,8.40
2022-12-12T17:33:27.426Z,9.90
2022-12-12T17:35:59.863Z,10.17
2022-12-12T17:38:28.695Z,8.23
2022-12-12T17:40:57.323Z,11.23
2022-12-12T17:43:25.848Z,8.90
2022-12-12T17:46:14.698Z,9.83
2022-12-12T17:48:43.527Z,8.83
2022-12-12T17:51:12.478Z,11.13
2022-12-12T17:53:40.049Z,9.27
2022-12-12T17:56:08.432Z,9.17
2022-12-12T17:58:37.321Z,8.30
2022-12-12T18:01:15.861Z,7.73
2022-12-12T18:03:44.251Z,10.50
2022-12-12T18:06:12.156Z,10.20
2022-12-12T18:08:40.151Z,10.33
2022-12-12T18:11:12.048Z,7.90
2022-12-12T18:13:40.164Z,8.67
2022-12-12T18:16:08.629Z,9.50
2022-12-12T18:18:36.603Z,9.07
2022-12-12T18:21:05.221Z,8.87
2022-12-12T18:23:33.039Z,9.60
2022-12-12T18:26:05.017Z,9.50
2022-12-12T18:28:32.966Z,9.20
2022-12-12T18:31:00.627Z,8.60
2022-12-12T18:33:28.300Z,8.47
2022-12-12T18:36:03.086Z,8.93
2022-12-12T18:38:31.176Z,9.00
2022-12-12T18:40:58.922Z,8.43
2022-12-12T18:43:27.738Z,8.73
2022-12-12T18:45:55.757Z,10.00
2022-12-12T18:48:23.774Z,10.73
2022-12-12T18:50:51.233Z,11.27
2022-12-12T18:53:18.799Z,9.93
2022-12-12T18:55:47.328Z,9.27
2022-12-12T18:58:14.822Z,8.73
2022-12-12T19:00:42.725Z,10.10
2022-12-12T19:03:10.526Z,9.10
2022-12-12T19:05:41.621Z,11.40
2022-12-12T19:08:09.495Z,9.80
2022-12-12T19:10:37.619Z,8.53
2022-12-12T19:13:05.422Z,10.23
2022-12-12T19:15:32.964Z,9.20
2022-12-12T19:18:00.438Z,10.40
2022-12-12T19:20:27.958Z,10.33
2022-12-12T19:22:56.526Z,10.63
2022-12-12T19:25:24.035Z,9.93
2022-12-12T19:27:51.629Z,9.90
2022-12-12T19:30:19.121Z,9.80
2022-12-12T19:32:49.079Z,9.57
2022-12-12T19:35:16.776Z,10.37
2022-12-12T19:37:44.283Z,9.57
2022-12-12T19:40:12.478Z,11.27
2022-12-12T19:42:40.357Z,10.20
2022-12-12T19:45:08.964Z,8.53
2022-12-12T19:47:37.851Z,9.00
2022-12-12T19:50:05.612Z,9.87
2022-12-12T19:52:33.091Z,8.07
2022-12-12T19:55:00.633Z,8.97
2022-12-12T19:57:28.158Z,10.53
2022-12-12T19:59:55.633Z,11.33
2022-12-12T20:02:23.181Z,10.17
2022-12-12T20:04:50.808Z,10.03
2022-12-12T20:07:18.345Z,10.87
2022-12-12T20:09:45.859Z,9.73
2022-12-12T20:12:13.637Z,11.03
2022-12-12T20:14:41.121Z,10.03
2022-12-12T20:17:08.568Z,8.77
2022-12-12T20:19:36.108Z,10.30
2022-12-12T20:22:04.073Z,10.30
2022-12-12T20:24:33.087Z,11.03
2022-12-12T20:27:00.752Z,9.50
2022-12-12T20:29:28.652Z,8.83
2022-12-12T20:31:56.463Z,9.93
2022-12-12T20:34:25.047Z,10.10
2022-12-12T20:36:55.724Z,9.67
2022-12-12T20:39:24.927Z,10.07
2022-12-12T20:41:53.949Z,9.70
2022-12-12T20:44:23.417Z,10.97
2022-12-12T20:46:50.888Z,10.27
2022-12-12T20:49:19.576Z,8.57
2022-12-12T20:51:56.279Z,9.07
2022-12-12T20:54:25.412Z,8.73
2022-12-12T20:56:54.201Z,9.87
2022-12-12T20:59:21.752Z,9.87
2022-12-12T21:01:49.253Z,8.87
2022-12-12T21:04:16.798Z,9.67
2022-12-12T21:06:48.543Z,10.20
2022-12-12T21:09:23.279Z,10.90
2022-12-12T21:11:53.472Z,10.40
2022-12-12T21:14:21.001Z,9.30
2022-12-12T21:16:48.586Z,10.30
2022-12-12T21:19:17.175Z,11.20
2022-12-12T21:21:44.747Z,9.90
2022-12-12T21:24:13.181Z,10.57
2022-12-12T21:26:40.670Z,12.87
2022-12-12T21:29:08.165Z,11.10
2022-12-12T21:31:37.188Z,11.63
2022-12-12T21:34:05.493Z,11.20
2022-12-12T21:36:33.656Z,12.17
2022-12-12T21:39:02.464Z,10.83
2022-12-12T21:41:30.642Z,10.43
2022-12-12T21:43:59.733Z,11.43
2022-12-12T21:46:28.194Z,11.00
2022-12-12T21:49:14.908Z,10.20
2022-12-12T21:51:42.523Z,11.77
2022-12-12T21:54:10.897Z,8.63
2022-12-12T21:56:39.075Z,10.07
2022-12-12T21:59:06.500Z,10.87
2022-12-12T22:01:34.279Z,11.70
2022-12-12T22:04:02.032Z,11.57
2022-12-12T22:06:31.848Z,11.83
2022-12-12T22:08:59.940Z,11.03
2022-12-12T22:11:40.357Z,11.03
2022-12-12T22:14:16.378Z,11.10
2022-12-12T22:16:43.935Z,9.60
2022-12-12T22:19:12.633Z,10.73
2022-12-12T22:21:40.050Z,12.17
2022-12-12T22:24:07.715Z,11.57
2022-12-12T22:26:39.743Z,9.63
2022-12-12T22:29:15.045Z,12.57
2022-12-12T22:31:42.857Z,9.87
2022-12-12T22:34:17.930Z,11.93
2022-12-12T22:36:45.941Z,12.53
2022-12-12T22:39:14.957Z,10.40
2022-12-12T22:41:42.472Z,13.00
2022-12-12T22:44:13.220Z,10.23
2022-12-12T22:46:43.916Z,11.37
2022-12-12T22:49:13.493Z,10.63
2022-12-12T22:51:41.467Z,11.30
2022-12-12T22:54:08.958Z,9.83
2022-12-12T22:56:37.233Z,11.50
2022-12-12T22:59:05.620Z,10.60
2022-12-12T23:01:33.281Z,13.40
2022-12-12T23:04:00.995Z,9.70
2022-12-12T23:06:32.973Z,11.27
2022-12-12T23:09:05.460Z,11.63
2022-12-12T23:11:33.567Z,11.67
2022-12-12T23:14:02.782Z,11.90
2022-12-12T23:16:35.603Z,10.27
2022-12-12T23:19:06.842Z,13.70
2022-12-12T23:21:35.183Z,13.20
2022-12-12T23:24:02.863Z,13.00
2022-12-12T23:26:31.527Z,10.60
2022-12-12T23:28:59.833Z,12.57
2022-12-12T23:31:28.824Z,11.07
2022-12-12T23:33:57.469Z,12.30
2022-12-12T23:36:25.550Z,12.70
2022-12-12T23:38:56.838Z,12.27
2022-12-12T23:41:24.680Z,10.20
2022-12-12T23:43:52.520Z,12.60
2022-12-12T23:46:29.409Z,10.87
2022-12-12T23:49:01.214Z,14.47
2022-12-12T23:51:30.193Z,12.70
2022-12-12T23:53:58.791Z,12.73
2022-12-12T23:56:26.438Z,13.03
2022-12-12T23:58:54.329Z,11.93
